createdAt,value
2023-04-30T00:00:44.115Z,98437.00
2023-04-30T00:03:18.373Z,98444.00
2023-04-30T00:05:52.701Z,98445.00
2023-04-30T00:08:27.042Z,98428.00
2023-04-30T00:11:01.141Z,98439.00
2023-04-30T00:13:35.287Z,98433.00
2023-04-30T00:16:11.225Z,98444.00
2023-04-30T00:18:45.662Z,98440.00
2023-04-30T00:21:19.942Z,98449.00
2023-04-30T00:23:54.063Z,98442.00
2023-04-30T00:26:28.373Z,98454.00
2023-04-30T00:29:02.592Z,98454.00
2023-04-30T00:31:38.191Z,98450.00
2023-04-30T00:34:13.082Z,98443.00
2023-04-30T00:36:47.234Z,98449.00
2023-04-30T00:39:21.316Z,98443.00
2023-04-30T00:41:55.398Z,98441.00
2023-04-30T00:44:29.547Z,98433.00
2023-04-30T00:47:05.055Z,98435.00
2023-04-30T00:49:39.256Z,98446.00
2023-04-30T00:52:14.694Z,98445.00
2023-04-30T00:54:50.656Z,98439.00
2023-04-30T00:57:26.244Z,98444.00
2023-04-30T01:00:00.923Z,98436.00
2023-04-30T01:02:37.537Z,98436.00
2023-04-30T01:05:12.257Z,98436.00
2023-04-30T01:07:47.239Z,98436.00
2023-04-30T01:10:22.685Z,98435.00
2023-04-30T01:13:06.565Z,98442.00
2023-04-30T01:15:48.977Z,98445.00
2023-04-30T01:18:30.995Z,98450.00
2023-04-30T01:21:09.204Z,98445.00
2023-04-30T01:24:11.699Z,98447.00
2023-04-30T01:27:01.536Z,98449.00
2023-04-30T01:29:39.136Z,98445.00
2023-04-30T01:32:13.649Z,98445.00
2023-04-30T01:34:47.768Z,98440.00
2023-04-30T01:37:30.256Z,98440.00
2023-04-30T01:40:24.426Z,98434.00
2023-04-30T01:43:08.672Z,98437.00
2023-04-30T01:46:01.089Z,98440.00
2023-04-30T01:48:44.842Z,98434.00
2023-04-30T01:51:27.621Z,98429.00
2023-04-30T01:54:19.155Z,98430.00
2023-04-30T01:57:04.206Z,98431.00
2023-04-30T01:59:41.003Z,98431.00
2023-04-30T02:02:20.064Z,98433.00
2023-04-30T02:04:54.344Z,98437.00
2023-04-30T02:07:40.979Z,98436.00
2023-04-30T02:10:22.175Z,98440.00
2023-04-30T02:12:56.480Z,98441.00
2023-04-30T02:15:30.566Z,98438.00
2023-04-30T02:18:06.243Z,98438.00
2023-04-30T02:20:40.363Z,98430.00
2023-04-30T02:23:14.975Z,98435.00
2023-04-30T02:25:49.281Z,98438.00
2023-04-30T02:28:23.481Z,98432.00
2023-04-30T02:30:57.824Z,98434.00
2023-04-30T02:33:33.535Z,98433.00
2023-04-30T02:36:08.047Z,98435.00
2023-04-30T02:38:42.193Z,98434.00
2023-04-30T02:41:19.227Z,98434.00
2023-04-30T02:43:53.283Z,98418.00
2023-04-30T02:46:27.358Z,98432.00
2023-04-30T02:49:02.856Z,98421.00
2023-04-30T02:51:37.029Z,98423.00
2023-04-30T02:54:11.228Z,98428.00
2023-04-30T02:56:45.552Z,98425.00
2023-04-30T02:59:20.961Z,98421.00
2023-04-30T03:01:55.184Z,98422.00
2023-04-30T03:04:30.581Z,98420.00
2023-04-30T03:07:04.658Z,98425.00
2023-04-30T03:09:38.900Z,98424.00
2023-04-30T03:12:14.557Z,98434.00
2023-04-30T03:14:48.814Z,98432.00
2023-04-30T03:17:24.784Z,98432.00
2023-04-30T03:20:00.238Z,98433.00
2023-04-30T03:22:34.424Z,98427.00
2023-04-30T03:25:09.738Z,98425.00
2023-04-30T03:27:43.843Z,98431.00
2023-04-30T03:30:18.009Z,98423.00
2023-04-30T03:32:52.546Z,98414.00
2023-04-30T03:35:28.320Z,98415.00
2023-04-30T03:38:02.981Z,98415.00
2023-04-30T03:40:37.036Z,98415.00
2023-04-30T03:43:11.219Z,98415.00
2023-04-30T03:45:45.792Z,98416.00
2023-04-30T03:48:20.358Z,98417.00
2023-04-30T03:50:55.765Z,98416.00
2023-04-30T03:53:29.874Z,98408.00
2023-04-30T03:56:04.495Z,98414.00
2023-04-30T03:58:38.762Z,98405.00
2023-04-30T04:01:12.833Z,98415.00
2023-04-30T04:03:47.154Z,98415.00
2023-04-30T04:06:23.531Z,98408.00
2023-04-30T04:08:57.757Z,98412.00
2023-04-30T04:11:31.942Z,98411.00
2023-04-30T04:14:06.156Z,98414.00
2023-04-30T04:16:40.442Z,98416.00
2023-04-30T04:19:15.106Z,98419.00
2023-04-30T04:21:50.745Z,98411.00
2023-04-30T04:24:26.415Z,98421.00
2023-04-30T04:27:02.921Z,98420.00
2023-04-30T04:29:37.696Z,98420.00
2023-04-30T04:32:11.820Z,98430.00
2023-04-30T04:34:45.956Z,98427.00
2023-04-30T04:37:22.484Z,98431.00
2023-04-30T04:39:56.752Z,98438.00
2023-04-30T04:42:31.020Z,98436.00
2023-04-30T04:45:07.253Z,98436.00
2023-04-30T04:47:41.512Z,98439.00
2023-04-30T04:50:15.648Z,98439.00
2023-04-30T04:52:51.097Z,98443.00
2023-04-30T04:55:25.332Z,98445.00
2023-04-30T04:57:59.454Z,98451.00
2023-04-30T05:00:34.055Z,98444.00
2023-04-30T05:03:09.411Z,98448.00
2023-04-30T05:05:44.940Z,98438.00
2023-04-30T05:08:23.801Z,98438.00
2023-04-30T05:10:58.050Z,98450.00
2023-04-30T05:13:32.205Z,98444.00
2023-04-30T05:16:07.312Z,98439.00
2023-04-30T05:18:41.425Z,98444.00
2023-04-30T05:21:16.109Z,98445.00
2023-04-30T05:23:51.520Z,98449.00
2023-04-30T05:26:25.806Z,98446.00
2023-04-30T05:28:59.914Z,98446.00
2023-04-30T05:31:34.309Z,98449.00
2023-04-30T05:34:08.412Z,98448.00
2023-04-30T05:36:44.319Z,98448.00
2023-04-30T05:39:24.337Z,98447.00
2023-04-30T05:41:58.491Z,98448.00
2023-04-30T05:44:32.589Z,98451.00
2023-04-30T05:47:07.130Z,98446.00
2023-04-30T05:49:41.300Z,98445.00
2023-04-30T05:52:17.216Z,98443.00
2023-04-30T05:54:52.783Z,98447.00
2023-04-30T05:57:27.230Z,98447.00
2023-04-30T06:00:01.377Z,98452.00
2023-04-30T06:02:35.765Z,98455.00
2023-04-30T06:05:10.727Z,98455.00
2023-04-30T06:07:44.983Z,98456.00
2023-04-30T06:10:21.391Z,98460.00
2023-04-30T06:12:55.611Z,98461.00
2023-04-30T06:15:29.776Z,98459.00
2023-04-30T06:18:04.030Z,98456.00
2023-04-30T06:20:38.190Z,98464.00
2023-04-30T06:23:12.322Z,98461.00
2023-04-30T06:25:47.850Z,98459.00
2023-04-30T06:28:22.207Z,98461.00
2023-04-30T06:30:56.643Z,98461.00
2023-04-30T06:33:30.859Z,98461.00
2023-04-30T06:36:05.956Z,98460.00
2023-04-30T06:38:40.135Z,98463.00
2023-04-30T06:41:16.255Z,98464.00
2023-04-30T06:43:50.520Z,98461.00
2023-04-30T06:46:26.302Z,98468.00
2023-04-30T06:49:00.428Z,98465.00
2023-04-30T06:51:34.583Z,98470.00
2023-04-30T06:54:08.895Z,98472.00
2023-04-30T06:56:45.130Z,98466.00
2023-04-30T06:59:19.276Z,98470.00
2023-04-30T07:01:53.656Z,98459.00
2023-04-30T07:04:28.710Z,98467.00
2023-04-30T07:07:02.948Z,98472.00
2023-04-30T07:09:38.403Z,98471.00
2023-04-30T07:12:13.983Z,98465.00
2023-04-30T07:14:49.135Z,98457.00
2023-04-30T07:17:24.207Z,98460.00
2023-04-30T07:20:00.296Z,98467.00
2023-04-30T07:22:34.599Z,98466.00
2023-04-30T07:25:10.321Z,98471.00
2023-04-30T07:27:46.015Z,98472.00
2023-04-30T07:30:20.932Z,98460.00
2023-04-30T07:32:58.164Z,98454.00
2023-04-30T07:35:32.243Z,98452.00
2023-04-30T07:38:09.622Z,98456.00
2023-04-30T07:40:43.799Z,98451.00
2023-04-30T07:43:19.265Z,98449.00
2023-04-30T07:45:54.418Z,98460.00
2023-04-30T07:48:28.641Z,98455.00
2023-04-30T07:51:04.782Z,98454.00
2023-04-30T07:53:38.868Z,98448.00
2023-04-30T07:56:12.900Z,98450.00
2023-04-30T07:58:48.458Z,98456.00
2023-04-30T08:01:22.518Z,98453.00
2023-04-30T08:03:56.740Z,98459.00
2023-04-30T08:06:31.788Z,98456.00
2023-04-30T08:09:06.150Z,98459.00
2023-04-30T08:11:40.393Z,98450.00
2023-04-30T08:14:15.856Z,98456.00
2023-04-30T08:16:49.996Z,98458.00
2023-04-30T08:19:25.628Z,98461.00
2023-04-30T08:22:01.172Z,98459.00
2023-04-30T08:24:35.295Z,98454.00
2023-04-30T08:27:09.411Z,98453.00
2023-04-30T08:29:44.905Z,98455.00
2023-04-30T08:32:20.801Z,98464.00
2023-04-30T08:34:55.975Z,98465.00
2023-04-30T08:37:30.228Z,98457.00
2023-04-30T08:40:09.485Z,98454.00
2023-04-30T08:42:51.934Z,98456.00
2023-04-30T08:45:28.962Z,98460.00
2023-04-30T08:48:04.699Z,98460.00
2023-04-30T08:50:39.935Z,98461.00
2023-04-30T08:53:15.853Z,98452.00
2023-04-30T08:55:50.037Z,98466.00
2023-04-30T08:58:25.171Z,98471.00
2023-04-30T09:01:01.187Z,98464.00
2023-04-30T09:03:35.553Z,98468.00
2023-04-30T09:06:09.696Z,98470.00
2023-04-30T09:08:46.911Z,98466.00
2023-04-30T09:11:27.770Z,98470.00
2023-04-30T09:14:03.582Z,98458.00
2023-04-30T09:16:50.607Z,98458.00
2023-04-30T09:19:26.580Z,98465.00
2023-04-30T09:22:00.858Z,98463.00
2023-04-30T09:24:48.236Z,98461.00
2023-04-30T09:27:24.332Z,98463.00
2023-04-30T09:29:58.453Z,98462.00
2023-04-30T09:32:34.236Z,98465.00
2023-04-30T09:35:09.425Z,98468.00
2023-04-30T09:37:43.469Z,98468.00
2023-04-30T09:40:19.867Z,98469.00
2023-04-30T09:43:02.657Z,98459.00
2023-04-30T09:45:49.822Z,98457.00
2023-04-30T09:48:28.449Z,98450.00
2023-04-30T09:51:05.042Z,98454.00
2023-04-30T09:53:39.791Z,98455.00
2023-04-30T09:56:16.245Z,98464.00
2023-04-30T09:58:54.259Z,98463.00
2023-04-30T10:01:30.245Z,98458.00
2023-04-30T10:04:06.503Z,98461.00
2023-04-30T10:06:41.197Z,98466.00
2023-04-30T10:09:16.952Z,98466.00
2023-04-30T10:11:52.678Z,98460.00
2023-04-30T10:14:30.692Z,98466.00
2023-04-30T10:17:11.303Z,98470.00
2023-04-30T10:19:51.182Z,98466.00
2023-04-30T10:22:26.298Z,98461.00
2023-04-30T10:25:02.444Z,98451.00
2023-04-30T10:27:37.814Z,98450.00
2023-04-30T10:30:13.079Z,98450.00
2023-04-30T10:33:03.676Z,98461.00
2023-04-30T10:35:49.708Z,98458.00
2023-04-30T10:38:26.734Z,98449.00
2023-04-30T10:41:02.391Z,98445.00
2023-04-30T10:43:37.758Z,98452.00
2023-04-30T10:46:12.230Z,98449.00
2023-04-30T10:48:47.706Z,98450.00
2023-04-30T10:51:25.351Z,98454.00
2023-04-30T10:53:59.630Z,98454.00
2023-04-30T10:56:35.876Z,98452.00
2023-04-30T10:59:10.754Z,98447.00
2023-04-30T11:01:59.980Z,98439.00
2023-04-30T11:04:34.468Z,98439.00
2023-04-30T11:07:13.418Z,98434.00
2023-04-30T11:09:50.151Z,98444.00
2023-04-30T11:12:29.440Z,98435.00
2023-04-30T11:15:16.628Z,98440.00
2023-04-30T11:17:52.270Z,98428.00
2023-04-30T11:20:27.761Z,98438.00
2023-04-30T11:23:24.988Z,98440.00
2023-04-30T11:26:08.404Z,98432.00
2023-04-30T11:28:53.757Z,98434.00
2023-04-30T11:31:34.876Z,98432.00
2023-04-30T11:34:10.368Z,98435.00
2023-04-30T11:36:46.914Z,98429.00
2023-04-30T11:39:22.646Z,98435.00
2023-04-30T11:41:57.454Z,98424.00
2023-04-30T11:44:32.519Z,98433.00
2023-04-30T11:47:06.975Z,98428.00
2023-04-30T11:49:41.202Z,98415.00
2023-04-30T11:52:15.376Z,98414.00
2023-04-30T11:54:51.168Z,98404.00
2023-04-30T11:57:25.754Z,98408.00
2023-04-30T12:00:12.190Z,98403.00
2023-04-30T12:02:49.082Z,98407.00
2023-04-30T12:05:25.474Z,98401.00
2023-04-30T12:08:04.407Z,98396.00
2023-04-30T12:10:39.971Z,98397.00
2023-04-30T12:13:16.804Z,98388.00
2023-04-30T12:16:01.705Z,98390.00
2023-04-30T12:18:35.954Z,98387.00
2023-04-30T12:21:11.726Z,98391.00
2023-04-30T12:23:46.148Z,98399.00
2023-04-30T12:26:21.939Z,98400.00
2023-04-30T12:28:57.458Z,98389.00
2023-04-30T12:31:34.422Z,98392.00
2023-04-30T12:34:11.781Z,98396.00
2023-04-30T12:36:48.607Z,98395.00
2023-04-30T12:39:22.662Z,98393.00
2023-04-30T12:42:02.534Z,98401.00
2023-04-30T12:44:45.042Z,98401.00
2023-04-30T12:47:19.492Z,98382.00
2023-04-30T12:49:53.706Z,98390.00
2023-04-30T12:52:29.007Z,98391.00
2023-04-30T12:55:18.140Z,98393.00
2023-04-30T12:58:07.625Z,98386.00
2023-04-30T13:00:49.662Z,98387.00
2023-04-30T13:03:24.418Z,98373.00
2023-04-30T13:06:03.262Z,98371.00
2023-04-30T13:08:49.758Z,98365.00
2023-04-30T13:11:31.834Z,98367.00
2023-04-30T13:14:09.001Z,98366.00
2023-04-30T13:16:43.108Z,98368.00
2023-04-30T13:19:17.219Z,98365.00
2023-04-30T13:21:51.413Z,98372.00
2023-04-30T13:24:25.769Z,98352.00
2023-04-30T13:27:00.260Z,98352.00
2023-04-30T13:29:35.900Z,98353.00
2023-04-30T13:32:10.372Z,98347.00
2023-04-30T13:34:44.909Z,98344.00
2023-04-30T13:37:19.761Z,98353.00
2023-04-30T13:39:53.974Z,98355.00
2023-04-30T13:42:31.590Z,98350.00
2023-04-30T13:45:09.154Z,98342.00
2023-04-30T13:47:43.396Z,98345.00
2023-04-30T13:50:17.594Z,98343.00
2023-04-30T13:52:52.001Z,98339.00
2023-04-30T13:55:28.615Z,98337.00
2023-04-30T13:58:03.908Z,98338.00
2023-04-30T14:00:40.606Z,98340.00
2023-04-30T14:03:15.823Z,98346.00
2023-04-30T14:05:50.057Z,98343.00
2023-04-30T14:08:24.168Z,98339.00
2023-04-30T14:10:58.690Z,98334.00
2023-04-30T14:13:33.944Z,98338.00
2023-04-30T14:16:09.793Z,98341.00
2023-04-30T14:18:43.927Z,98329.00
2023-04-30T14:21:18.192Z,98326.00
2023-04-30T14:23:52.359Z,98325.00
2023-04-30T14:26:26.600Z,98331.00
2023-04-30T14:29:00.840Z,98325.00
2023-04-30T14:31:36.275Z,98322.00
2023-04-30T14:34:10.842Z,98317.00
2023-04-30T14:36:44.981Z,98307.00
2023-04-30T14:39:19.527Z,98301.00
2023-04-30T14:41:53.705Z,98293.00
2023-04-30T14:44:28.426Z,98289.00
2023-04-30T14:47:04.625Z,98284.00
2023-04-30T14:49:39.008Z,98279.00
2023-04-30T14:52:13.465Z,98273.00
2023-04-30T14:54:47.653Z,98285.00
2023-04-30T14:57:22.528Z,98275.00
2023-04-30T14:59:58.000Z,98289.00
2023-04-30T15:02:34.611Z,98283.00
2023-04-30T15:05:09.771Z,98290.00
2023-04-30T15:07:43.818Z,98280.00
2023-04-30T15:10:18.480Z,98285.00
2023-04-30T15:12:57.352Z,98278.00
2023-04-30T15:15:35.068Z,98273.00
2023-04-30T15:18:11.181Z,98278.00
2023-04-30T15:20:45.443Z,98267.00
2023-04-30T15:23:19.611Z,98278.00
2023-04-30T15:25:53.683Z,98262.00
2023-04-30T15:28:27.907Z,98257.00
2023-04-30T15:31:02.027Z,98270.00
2023-04-30T15:33:41.741Z,98272.00
2023-04-30T15:36:18.025Z,98270.00
2023-04-30T15:38:52.309Z,98273.00
2023-04-30T15:41:26.431Z,98268.00
2023-04-30T15:44:00.745Z,98272.00
2023-04-30T15:46:35.279Z,98262.00
2023-04-30T15:49:10.836Z,98260.00
2023-04-30T15:51:45.566Z,98265.00
2023-04-30T15:54:19.741Z,98264.00
2023-04-30T15:56:53.862Z,98266.00
2023-04-30T15:59:28.365Z,98259.00
2023-04-30T16:02:05.117Z,98257.00
2023-04-30T16:04:41.445Z,98258.00
2023-04-30T16:07:16.084Z,98249.00
2023-04-30T16:09:50.289Z,98252.00
2023-04-30T16:12:24.392Z,98249.00
2023-04-30T16:14:58.549Z,98249.00
2023-04-30T16:17:36.280Z,98246.00
2023-04-30T16:20:14.337Z,98243.00
2023-04-30T16:22:49.679Z,98239.00
2023-04-30T16:25:24.996Z,98241.00
2023-04-30T16:27:59.167Z,98244.00
2023-04-30T16:30:37.463Z,98237.00
2023-04-30T16:33:15.814Z,98239.00
2023-04-30T16:35:52.449Z,98230.00
2023-04-30T16:38:27.176Z,98224.00
2023-04-30T16:41:02.019Z,98229.00
2023-04-30T16:43:36.874Z,98219.00
2023-04-30T16:46:11.901Z,98225.00
2023-04-30T16:48:48.376Z,98223.00
2023-04-30T16:51:24.447Z,98225.00
2023-04-30T16:53:59.686Z,98220.00
2023-04-30T16:56:38.365Z,98216.00
2023-04-30T16:59:13.078Z,98219.00
2023-04-30T17:01:48.931Z,98210.00
2023-04-30T17:04:23.849Z,98217.00
2023-04-30T17:07:02.051Z,98215.00
2023-04-30T17:09:41.767Z,98219.00
2023-04-30T17:12:18.827Z,98216.00
2023-04-30T17:14:53.754Z,98223.00
2023-04-30T17:17:27.910Z,98219.00
2023-04-30T17:20:01.988Z,98224.00
2023-04-30T17:22:38.295Z,98228.00
2023-04-30T17:25:13.575Z,98221.00
2023-04-30T17:27:47.620Z,98224.00
2023-04-30T17:30:21.665Z,98224.00
2023-04-30T17:32:56.638Z,98228.00
2023-04-30T17:35:31.245Z,98227.00
2023-04-30T17:38:06.937Z,98224.00
2023-04-30T17:40:41.194Z,98219.00
2023-04-30T17:43:15.477Z,98229.00
2023-04-30T17:45:51.269Z,98236.00
2023-04-30T17:48:25.549Z,98243.00
2023-04-30T17:50:59.827Z,98236.00
2023-04-30T17:53:40.354Z,98239.00
2023-04-30T17:56:15.394Z,98244.00
2023-04-30T17:58:49.562Z,98243.00
2023-04-30T18:01:24.867Z,98239.00
2023-04-30T18:04:01.421Z,98242.00
2023-04-30T18:06:38.466Z,98241.00
2023-04-30T18:09:14.323Z,98235.00
2023-04-30T18:11:48.604Z,98244.00
2023-04-30T18:14:22.670Z,98244.00
2023-04-30T18:16:56.805Z,98240.00
2023-04-30T18:19:31.540Z,98240.00
2023-04-30T18:22:05.706Z,98238.00
2023-04-30T18:24:41.420Z,98247.00
2023-04-30T18:27:15.493Z,98245.00
2023-04-30T18:29:50.289Z,98237.00
2023-04-30T18:32:24.522Z,98240.00
2023-04-30T18:34:58.679Z,98246.00
2023-04-30T18:37:33.280Z,98246.00
2023-04-30T18:40:13.206Z,98240.00
2023-04-30T18:42:47.590Z,98242.00
2023-04-30T18:45:21.735Z,98247.00
2023-04-30T18:47:55.953Z,98250.00
2023-04-30T18:50:30.116Z,98246.00
2023-04-30T18:53:04.296Z,98249.00
2023-04-30T18:55:41.352Z,98245.00
2023-04-30T18:58:15.601Z,98246.00
2023-04-30T19:00:51.149Z,98241.00
2023-04-30T19:03:25.853Z,98245.00
2023-04-30T19:06:00.361Z,98241.00
2023-04-30T19:08:43.681Z,98246.00
2023-04-30T19:11:21.690Z,98239.00
2023-04-30T19:13:55.845Z,98241.00
2023-04-30T19:16:30.220Z,98248.00
2023-04-30T19:19:04.726Z,98246.00
2023-04-30T19:21:41.920Z,98245.00
2023-04-30T19:24:16.049Z,98250.00
2023-04-30T19:26:51.976Z,98249.00
2023-04-30T19:29:27.815Z,98253.00
2023-04-30T19:32:05.077Z,98257.00
2023-04-30T19:34:39.636Z,98254.00
2023-04-30T19:37:14.308Z,98259.00
2023-04-30T19:39:48.331Z,98257.00
2023-04-30T19:42:23.825Z,98255.00
2023-04-30T19:44:59.617Z,98254.00
2023-04-30T19:47:33.756Z,98250.00
2023-04-30T19:50:09.932Z,98251.00
2023-04-30T19:52:44.132Z,98250.00
2023-04-30T19:55:18.400Z,98246.00
2023-04-30T19:57:53.864Z,98250.00
2023-04-30T20:00:29.220Z,98244.00
2023-04-30T20:03:04.657Z,98235.00
2023-04-30T20:05:41.343Z,98243.00
2023-04-30T20:08:15.817Z,98246.00
2023-04-30T20:10:50.213Z,98238.00
2023-04-30T20:13:25.658Z,98241.00
2023-04-30T20:16:00.038Z,98235.00
2023-04-30T20:18:34.373Z,98237.00
2023-04-30T20:21:08.489Z,98240.00
2023-04-30T20:23:42.590Z,98234.00
2023-04-30T20:26:16.986Z,98234.00
2023-04-30T20:28:52.452Z,98228.00
2023-04-30T20:31:31.135Z,98235.00
2023-04-30T20:34:05.377Z,98240.00
2023-04-30T20:36:42.674Z,98233.00
2023-04-30T20:39:17.403Z,98230.00
2023-04-30T20:41:52.104Z,98230.00
2023-04-30T20:44:28.059Z,98235.00
2023-04-30T20:47:03.204Z,98236.00
2023-04-30T20:49:39.034Z,98234.00
2023-04-30T20:52:13.595Z,98237.00
2023-04-30T20:54:48.327Z,98228.00
2023-04-30T20:57:22.521Z,98218.00
2023-04-30T20:59:58.166Z,98219.00
2023-04-30T21:02:33.047Z,98213.00
2023-04-30T21:05:11.197Z,98209.00
2023-04-30T21:07:45.611Z,98210.00
2023-04-30T21:10:20.027Z,98212.00
2023-04-30T21:12:54.102Z,98213.00
2023-04-30T21:15:30.871Z,98213.00
2023-04-30T21:18:05.286Z,98224.00
2023-04-30T21:20:40.783Z,98212.00
2023-04-30T21:23:14.893Z,98220.00
2023-04-30T21:25:49.131Z,98207.00
2023-04-30T21:28:23.457Z,98201.00
2023-04-30T21:30:58.934Z,98199.00
2023-04-30T21:33:33.426Z,98197.00
2023-04-30T21:36:08.124Z,98196.00
2023-04-30T21:38:43.132Z,98194.00
2023-04-30T21:41:18.442Z,98197.00
2023-04-30T21:43:56.900Z,98188.00
2023-04-30T21:46:32.473Z,98188.00
2023-04-30T21:49:06.751Z,98193.00
2023-04-30T21:51:45.412Z,98188.00
2023-04-30T21:54:20.878Z,98189.00
2023-04-30T21:56:55.156Z,98194.00
2023-04-30T21:59:29.573Z,98187.00
2023-04-30T22:02:19.986Z,98184.00
2023-04-30T22:04:57.649Z,98184.00
2023-04-30T22:07:31.894Z,98181.00
2023-04-30T22:10:07.596Z,98181.00
2023-04-30T22:12:46.287Z,98174.00
2023-04-30T22:15:21.800Z,98176.00
2023-04-30T22:17:57.216Z,98165.00
2023-04-30T22:20:31.425Z,98166.00
2023-04-30T22:23:05.469Z,98155.00
2023-04-30T22:25:42.895Z,98166.00
2023-04-30T22:28:19.119Z,98150.00
2023-04-30T22:30:59.843Z,98156.00
2023-04-30T22:33:38.065Z,98155.00
2023-04-30T22:36:12.160Z,98158.00
2023-04-30T22:38:46.291Z,98156.00
2023-04-30T22:41:22.041Z,98156.00
2023-04-30T22:43:56.359Z,98149.00
2023-04-30T22:46:33.425Z,98142.00
2023-04-30T22:49:19.923Z,98145.00
2023-04-30T22:52:01.813Z,98137.00
2023-04-30T22:54:36.774Z,98143.00
2023-04-30T22:57:10.864Z,98142.00
2023-04-30T22:59:44.927Z,98139.00
2023-04-30T23:02:20.122Z,98143.00
2023-04-30T23:04:55.699Z,98140.00
2023-04-30T23:07:29.816Z,98135.00
2023-04-30T23:10:05.134Z,98128.00
2023-04-30T23:12:42.298Z,98135.00
2023-04-30T23:15:17.068Z,98137.00
2023-04-30T23:17:51.495Z,98129.00
2023-04-30T23:20:27.050Z,98132.00
2023-04-30T23:23:01.039Z,98139.00
2023-04-30T23:25:35.379Z,98138.00
2023-04-30T23:28:09.535Z,98136.00
2023-04-30T23:30:44.355Z,98130.00
2023-04-30T23:33:18.610Z,98131.00
2023-04-30T23:35:56.019Z,98133.00
2023-04-30T23:38:30.207Z,98126.00
2023-04-30T23:41:04.570Z,98126.00
2023-04-30T23:43:39.081Z,98123.00
2023-04-30T23:46:15.891Z,98127.00
2023-04-30T23:48:50.676Z,98116.00
2023-04-30T23:51:26.648Z,98119.00
2023-04-30T23:54:00.819Z,98115.00
2023-04-30T23:56:36.628Z,98108.00
2023-04-30T23:59:10.757Z,98111.00
